sensor_id;sensor_type;location;lat;lon;timestamp;pressure;altitude;pressure_sealevel;temperature;humidity
63700;BME280;49845;47.130;142.766;2023-05-19T00:02:24;100573.66;;;11.51;90.08
63700;BME280;49845;47.130;142.766;2023-05-19T00:04:56;100584.88;;;11.58;90.47
63700;BME280;49845;47.130;142.766;2023-05-19T00:07:30;100533.88;;;11.31;89.58
63700;BME280;49845;47.130;142.766;2023-05-19T00:10:01;100581.13;;;11.76;89.79
63700;BME280;49845;47.130;142.766;2023-05-19T00:12:35;100581.09;;;11.79;89.57
63700;BME280;49845;47.130;142.766;2023-05-19T00:15:08;100575.69;;;11.88;89.90
63700;BME280;49845;47.130;142.766;2023-05-19T00:17:39;100589.44;;;12.02;89.64
63700;BME280;49845;47.130;142.766;2023-05-19T00:20:12;100576.97;;;12.17;89.40
63700;BME280;49845;47.130;142.766;2023-05-19T00:22:43;100572.44;;;12.26;89.00
63700;BME280;49845;47.130;142.766;2023-05-19T00:25:17;100568.72;;;12.38;88.50
63700;BME280;49845;47.130;142.766;2023-05-19T00:27:49;100565.66;;;12.60;89.15
63700;BME280;49845;47.130;142.766;2023-05-19T00:30:24;100563.50;;;12.80;88.55
63700;BME280;49845;47.130;142.766;2023-05-19T00:32:55;100563.16;;;12.97;88.69
63700;BME280;49845;47.130;142.766;2023-05-19T00:35:25;100559.34;;;13.12;87.72
63700;BME280;49845;47.130;142.766;2023-05-19T00:37:56;100560.75;;;13.28;88.27
63700;BME280;49845;47.130;142.766;2023-05-19T00:40:28;100556.03;;;13.43;87.82
63700;BME280;49845;47.130;142.766;2023-05-19T00:43:02;100534.28;;;13.37;86.99
63700;BME280;49845;47.130;142.766;2023-05-19T00:45:33;100556.81;;;13.84;87.55
63700;BME280;49845;47.130;142.766;2023-05-19T00:48:03;100558.81;;;14.08;87.54
63700;BME280;49845;47.130;142.766;2023-05-19T00:50:35;100553.16;;;14.23;87.02
63700;BME280;49845;47.130;142.766;2023-05-19T00:53:09;100558.00;;;14.39;85.83
63700;BME280;49845;47.130;142.766;2023-05-19T00:55:40;100534.50;;;14.33;85.84
63700;BME280;49845;47.130;142.766;2023-05-19T00:58:16;100562.84;;;14.54;85.15
63700;BME280;49845;47.130;142.766;2023-05-19T01:00:47;100554.84;;;14.59;85.50
63700;BME280;49845;47.130;142.766;2023-05-19T01:03:18;100554.72;;;14.63;84.31
63700;BME280;49845;47.130;142.766;2023-05-19T01:05:48;100553.69;;;14.67;83.80
63700;BME280;49845;47.130;142.766;2023-05-19T01:08:21;100550.09;;;14.72;83.07
63700;BME280;49845;47.130;142.766;2023-05-19T01:10:52;100558.53;;;14.83;84.18
63700;BME280;49845;47.130;142.766;2023-05-19T01:13:26;100549.28;;;14.99;84.45
63700;BME280;49845;47.130;142.766;2023-05-19T01:16:01;100560.25;;;15.14;83.53
63700;BME280;49845;47.130;142.766;2023-05-19T01:18:42;100549.88;;;15.09;83.14
63700;BME280;49845;47.130;142.766;2023-05-19T01:24:41;100548.72;;;15.18;81.25
63700;BME280;49845;47.130;142.766;2023-05-19T01:27:33;100544.31;;;15.46;81.38
63700;BME280;49845;47.130;142.766;2023-05-19T01:30:29;100539.16;;;15.43;80.38
63700;BME280;49845;47.130;142.766;2023-05-19T01:33:06;100528.50;;;15.46;81.92
63700;BME280;49845;47.130;142.766;2023-05-19T01:35:40;100538.75;;;15.56;79.84
63700;BME280;49845;47.130;142.766;2023-05-19T01:38:12;100543.81;;;15.62;80.15
63700;BME280;49845;47.130;142.766;2023-05-19T01:40:51;100465.94;;;15.28;80.54
63700;BME280;49845;47.130;142.766;2023-05-19T01:43:24;100532.53;;;15.85;79.07
63700;BME280;49845;47.130;142.766;2023-05-19T01:46:00;100530.44;;;15.94;78.08
63700;BME280;49845;47.130;142.766;2023-05-19T01:48:32;100534.00;;;15.93;76.87
63700;BME280;49845;47.130;142.766;2023-05-19T01:51:05;100533.69;;;16.03;77.37
63700;BME280;49845;47.130;142.766;2023-05-19T01:53:36;100533.59;;;16.06;76.64
63700;BME280;49845;47.130;142.766;2023-05-19T01:56:07;100507.44;;;16.00;76.11
63700;BME280;49845;47.130;142.766;2023-05-19T01:58:44;100520.50;;;16.28;76.38
63700;BME280;49845;47.130;142.766;2023-05-19T02:01:23;100520.31;;;16.32;75.57
63700;BME280;49845;47.130;142.766;2023-05-19T02:04:09;100524.09;;;16.50;75.50
63700;BME280;49845;47.130;142.766;2023-05-19T02:06:48;100516.09;;;16.52;74.12
63700;BME280;49845;47.130;142.766;2023-05-19T02:09:24;100529.13;;;16.56;73.58
63700;BME280;49845;47.130;142.766;2023-05-19T02:12:01;100533.44;;;16.59;73.65
63700;BME280;49845;47.130;142.766;2023-05-19T02:14:36;100524.91;;;16.76;74.46
63700;BME280;49845;47.130;142.766;2023-05-19T02:17:12;100514.75;;;16.89;74.43
63700;BME280;49845;47.130;142.766;2023-05-19T02:19:44;100514.53;;;16.95;72.94
63700;BME280;49845;47.130;142.766;2023-05-19T02:22:15;100520.16;;;16.86;72.35
63700;BME280;49845;47.130;142.766;2023-05-19T02:24:46;100519.66;;;16.74;71.93
63700;BME280;49845;47.130;142.766;2023-05-19T02:27:19;100522.00;;;16.84;72.77
63700;BME280;49845;47.130;142.766;2023-05-19T02:29:49;100518.88;;;16.96;72.22
63700;BME280;49845;47.130;142.766;2023-05-19T02:32:22;100508.34;;;17.18;71.55
63700;BME280;49845;47.130;142.766;2023-05-19T02:34:52;100507.53;;;17.38;71.89
63700;BME280;49845;47.130;142.766;2023-05-19T02:37:24;100505.78;;;17.59;70.68
63700;BME280;49845;47.130;142.766;2023-05-19T02:39:56;100506.03;;;17.75;69.18
63700;BME280;49845;47.130;142.766;2023-05-19T02:42:26;100496.88;;;17.83;68.38
63700;BME280;49845;47.130;142.766;2023-05-19T02:44:57;100498.66;;;17.83;69.26
63700;BME280;49845;47.130;142.766;2023-05-19T02:47:31;100496.88;;;18.04;68.51
63700;BME280;49845;47.130;142.766;2023-05-19T02:50:05;100494.97;;;18.07;67.12
63700;BME280;49845;47.130;142.766;2023-05-19T02:52:35;100500.38;;;18.25;66.27
63700;BME280;49845;47.130;142.766;2023-05-19T02:55:07;100504.13;;;18.40;64.49
63700;BME280;49845;47.130;142.766;2023-05-19T02:57:44;100503.97;;;18.62;65.21
63700;BME280;49845;47.130;142.766;2023-05-19T03:00:15;100493.44;;;18.81;63.91
63700;BME280;49845;47.130;142.766;2023-05-19T03:02:47;100458.38;;;18.75;62.44
63700;BME280;49845;47.130;142.766;2023-05-19T03:05:24;100498.44;;;19.06;62.07
63700;BME280;49845;47.130;142.766;2023-05-19T03:07:55;100495.81;;;19.23;63.23
63700;BME280;49845;47.130;142.766;2023-05-19T03:10:26;100488.19;;;19.34;62.73
63700;BME280;49845;47.130;142.766;2023-05-19T03:13:00;100489.94;;;19.35;61.48
63700;BME280;49845;47.130;142.766;2023-05-19T03:15:31;100472.31;;;19.34;61.54
63700;BME280;49845;47.130;142.766;2023-05-19T03:18:06;100449.56;;;19.30;59.69
63700;BME280;49845;47.130;142.766;2023-05-19T03:20:42;100464.97;;;19.22;59.63
63700;BME280;49845;47.130;142.766;2023-05-19T03:23:13;100466.34;;;19.12;61.27
63700;BME280;49845;47.130;142.766;2023-05-19T03:25:46;100458.66;;;18.88;58.45
63700;BME280;49845;47.130;142.766;2023-05-19T03:28:17;100447.75;;;18.57;57.50
63700;BME280;49845;47.130;142.766;2023-05-19T03:30:47;100458.13;;;18.61;58.84
63700;BME280;49845;47.130;142.766;2023-05-19T03:33:20;100457.44;;;18.58;58.86
63700;BME280;49845;47.130;142.766;2023-05-19T03:35:52;100460.19;;;18.73;57.79
63700;BME280;49845;47.130;142.766;2023-05-19T03:38:23;100453.06;;;18.94;58.10
63700;BME280;49845;47.130;142.766;2023-05-19T03:40:54;100458.41;;;19.29;58.94
63700;BME280;49845;47.130;142.766;2023-05-19T03:43:27;100455.16;;;19.59;59.89
63700;BME280;49845;47.130;142.766;2023-05-19T03:45:58;100443.72;;;19.93;59.97
63700;BME280;49845;47.130;142.766;2023-05-19T03:48:33;100449.81;;;20.29;58.98
63700;BME280;49845;47.130;142.766;2023-05-19T03:51:04;100453.84;;;20.36;56.01
63700;BME280;49845;47.130;142.766;2023-05-19T03:53:38;100448.53;;;20.36;56.01
63700;BME280;49845;47.130;142.766;2023-05-19T03:56:09;100448.63;;;20.34;55.22
63700;BME280;49845;47.130;142.766;2023-05-19T03:58:41;100431.63;;;20.05;55.86
63700;BME280;49845;47.130;142.766;2023-05-19T04:01:15;100439.13;;;19.97;55.94
63700;BME280;49845;47.130;142.766;2023-05-19T04:03:47;100439.78;;;19.85;54.18
63700;BME280;49845;47.130;142.766;2023-05-19T04:06:18;100440.41;;;19.72;53.38
63700;BME280;49845;47.130;142.766;2023-05-19T04:08:49;100438.66;;;19.89;54.70
63700;BME280;49845;47.130;142.766;2023-05-19T04:11:20;100431.13;;;20.14;56.12
63700;BME280;49845;47.130;142.766;2023-05-19T04:13:50;100429.66;;;20.42;56.06
63700;BME280;49845;47.130;142.766;2023-05-19T04:16:23;100436.03;;;20.55;54.16
63700;BME280;49845;47.130;142.766;2023-05-19T04:18:55;100433.75;;;20.47;53.97
63700;BME280;49845;47.130;142.766;2023-05-19T04:21:26;100403.09;;;20.42;54.14
63700;BME280;49845;47.130;142.766;2023-05-19T04:24:01;100438.50;;;20.58;54.01
63700;BME280;49845;47.130;142.766;2023-05-19T04:26:33;100428.94;;;20.54;54.72
63700;BME280;49845;47.130;142.766;2023-05-19T04:29:08;100427.09;;;20.56;53.48
63700;BME280;49845;47.130;142.766;2023-05-19T04:31:45;100407.09;;;20.49;53.88
63700;BME280;49845;47.130;142.766;2023-05-19T04:34:18;100430.03;;;20.67;53.30
63700;BME280;49845;47.130;142.766;2023-05-19T04:36:49;100428.16;;;20.70;53.87
63700;BME280;49845;47.130;142.766;2023-05-19T04:39:20;100429.06;;;20.68;54.75
63700;BME280;49845;47.130;142.766;2023-05-19T04:41:51;100428.66;;;20.60;54.68
63700;BME280;49845;47.130;142.766;2023-05-19T04:44:22;100431.19;;;20.46;54.55
63700;BME280;49845;47.130;142.766;2023-05-19T04:46:53;100393.16;;;20.30;54.92
63700;BME280;49845;47.130;142.766;2023-05-19T04:49:26;100422.78;;;20.38;54.67
63700;BME280;49845;47.130;142.766;2023-05-19T04:51:57;100432.31;;;20.42;54.25
63700;BME280;49845;47.130;142.766;2023-05-19T04:54:28;100441.25;;;20.23;53.98
63700;BME280;49845;47.130;142.766;2023-05-19T04:57:02;100433.84;;;19.97;54.29
63700;BME280;49845;47.130;142.766;2023-05-19T04:59:33;100437.97;;;19.85;53.51
63700;BME280;49845;47.130;142.766;2023-05-19T05:02:03;100443.31;;;19.49;52.63
63700;BME280;49845;47.130;142.766;2023-05-19T05:04:36;100446.06;;;18.93;53.24
63700;BME280;49845;47.130;142.766;2023-05-19T05:07:10;100449.19;;;18.64;54.47
63700;BME280;49845;47.130;142.766;2023-05-19T05:09:41;100447.41;;;18.45;55.65
63700;BME280;49845;47.130;142.766;2023-05-19T05:12:20;100437.44;;;18.13;55.88
63700;BME280;49845;47.130;142.766;2023-05-19T05:14:52;100436.94;;;17.84;56.01
63700;BME280;49845;47.130;142.766;2023-05-19T05:17:26;100403.34;;;17.45;57.11
63700;BME280;49845;47.130;142.766;2023-05-19T05:19:59;100409.22;;;17.31;58.06
63700;BME280;49845;47.130;142.766;2023-05-19T05:22:33;100449.44;;;17.38;57.56
63700;BME280;49845;47.130;142.766;2023-05-19T05:25:07;100446.75;;;17.17;57.32
63700;BME280;49845;47.130;142.766;2023-05-19T05:27:38;100431.53;;;17.02;58.23
63700;BME280;49845;47.130;142.766;2023-05-19T05:30:10;100429.19;;;16.94;58.85
63700;BME280;49845;47.130;142.766;2023-05-19T05:32:41;100440.72;;;16.92;59.22
63700;BME280;49845;47.130;142.766;2023-05-19T05:35:14;100443.44;;;16.90;58.92
63700;BME280;49845;47.130;142.766;2023-05-19T05:37:45;100449.72;;;16.88;57.68
63700;BME280;49845;47.130;142.766;2023-05-19T05:40:21;100450.88;;;16.80;58.21
63700;BME280;49845;47.130;142.766;2023-05-19T05:42:52;100448.94;;;16.84;57.64
63700;BME280;49845;47.130;142.766;2023-05-19T05:45:25;100453.56;;;17.01;56.99
63700;BME280;49845;47.130;142.766;2023-05-19T05:47:56;100447.69;;;17.37;55.50
63700;BME280;49845;47.130;142.766;2023-05-19T05:50:29;100449.59;;;17.76;54.64
63700;BME280;49845;47.130;142.766;2023-05-19T05:53:03;100449.88;;;18.10;55.51
63700;BME280;49845;47.130;142.766;2023-05-19T05:55:36;100438.44;;;18.29;54.36
63700;BME280;49845;47.130;142.766;2023-05-19T05:58:08;100442.94;;;18.08;54.94
63700;BME280;49845;47.130;142.766;2023-05-19T06:00:42;100403.88;;;17.74;55.22
63700;BME280;49845;47.130;142.766;2023-05-19T06:03:13;100445.13;;;17.98;55.71
63700;BME280;49845;47.130;142.766;2023-05-19T06:05:46;100444.97;;;17.60;55.20
63700;BME280;49845;47.130;142.766;2023-05-19T06:08:16;100442.03;;;17.25;55.92
63700;BME280;49845;47.130;142.766;2023-05-19T06:10:47;100430.31;;;16.89;56.77
63700;BME280;49845;47.130;142.766;2023-05-19T06:13:18;100448.53;;;16.71;57.66
63700;BME280;49845;47.130;142.766;2023-05-19T06:15:51;100446.44;;;16.57;57.52
63700;BME280;49845;47.130;142.766;2023-05-19T06:18:22;100343.00;;;15.80;58.31
63700;BME280;49845;47.130;142.766;2023-05-19T06:20:54;100441.22;;;16.32;58.50
63700;BME280;49845;47.130;142.766;2023-05-19T06:23:25;100445.63;;;16.32;59.73
63700;BME280;49845;47.130;142.766;2023-05-19T06:25:56;100444.50;;;16.39;59.33
63700;BME280;49845;47.130;142.766;2023-05-19T06:28:29;100446.28;;;16.38;59.19
63700;BME280;49845;47.130;142.766;2023-05-19T06:31:03;100443.06;;;16.30;59.57
63700;BME280;49845;47.130;142.766;2023-05-19T06:33:37;100442.09;;;16.33;60.06
63700;BME280;49845;47.130;142.766;2023-05-19T06:36:09;100446.78;;;16.48;60.27
63700;BME280;49845;47.130;142.766;2023-05-19T06:38:41;100448.38;;;16.52;60.27
63700;BME280;49845;47.130;142.766;2023-05-19T06:41:11;100454.88;;;16.44;59.05
63700;BME280;49845;47.130;142.766;2023-05-19T06:43:42;100452.69;;;16.31;59.60
63700;BME280;49845;47.130;142.766;2023-05-19T06:46:13;100455.44;;;16.28;60.21
63700;BME280;49845;47.130;142.766;2023-05-19T06:48:47;100447.19;;;16.14;60.15
63700;BME280;49845;47.130;142.766;2023-05-19T06:51:20;100440.63;;;16.01;59.99
63700;BME280;49845;47.130;142.766;2023-05-19T06:53:55;100443.13;;;15.80;60.40
63700;BME280;49845;47.130;142.766;2023-05-19T06:56:26;100439.31;;;15.62;61.42
63700;BME280;49845;47.130;142.766;2023-05-19T06:59:00;100457.91;;;15.58;62.16
63700;BME280;49845;47.130;142.766;2023-05-19T07:01:33;100458.97;;;15.52;62.47
63700;BME280;49845;47.130;142.766;2023-05-19T07:04:04;100463.78;;;15.39;62.75
63700;BME280;49845;47.130;142.766;2023-05-19T07:06:37;100465.03;;;15.27;62.72
63700;BME280;49845;47.130;142.766;2023-05-19T07:09:07;100464.50;;;15.18;63.16
63700;BME280;49845;47.130;142.766;2023-05-19T07:11:38;100454.16;;;15.12;63.38
63700;BME280;49845;47.130;142.766;2023-05-19T07:14:12;100455.97;;;15.09;63.68
63700;BME280;49845;47.130;142.766;2023-05-19T07:16:43;100465.59;;;15.10;63.40
63700;BME280;49845;47.130;142.766;2023-05-19T07:19:13;100458.75;;;15.05;63.34
63700;BME280;49845;47.130;142.766;2023-05-19T07:21:48;100453.53;;;15.03;63.71
63700;BME280;49845;47.130;142.766;2023-05-19T07:24:19;100463.34;;;14.98;63.48
63700;BME280;49845;47.130;142.766;2023-05-19T07:26:50;100454.09;;;14.85;62.75
63700;BME280;49845;47.130;142.766;2023-05-19T07:29:21;100464.78;;;14.80;63.03
63700;BME280;49845;47.130;142.766;2023-05-19T07:31:51;100467.72;;;14.70;62.75
63700;BME280;49845;47.130;142.766;2023-05-19T07:34:26;100467.81;;;14.66;62.28
63700;BME280;49845;47.130;142.766;2023-05-19T07:36:59;100475.69;;;14.96;62.19
63700;BME280;49845;47.130;142.766;2023-05-19T07:39:29;100467.84;;;15.23;62.00
63700;BME280;49845;47.130;142.766;2023-05-19T07:42:00;100470.78;;;15.40;60.61
63700;BME280;49845;47.130;142.766;2023-05-19T07:44:31;100465.00;;;15.56;60.60
63700;BME280;49845;47.130;142.766;2023-05-19T07:47:05;100462.78;;;15.70;60.37
63700;BME280;49845;47.130;142.766;2023-05-19T07:49:40;100469.41;;;15.82;59.82
63700;BME280;49845;47.130;142.766;2023-05-19T07:52:12;100471.19;;;15.81;59.75
63700;BME280;49845;47.130;142.766;2023-05-19T07:54:43;100474.63;;;15.83;59.86
63700;BME280;49845;47.130;142.766;2023-05-19T07:57:14;100472.00;;;15.83;59.93
63700;BME280;49845;47.130;142.766;2023-05-19T07:59:44;100474.41;;;15.89;60.02
63700;BME280;49845;47.130;142.766;2023-05-19T08:02:15;100473.59;;;15.87;59.08
63700;BME280;49845;47.130;142.766;2023-05-19T08:04:46;100462.47;;;15.79;58.28
63700;BME280;49845;47.130;142.766;2023-05-19T08:07:18;100477.97;;;15.88;58.73
63700;BME280;49845;47.130;142.766;2023-05-19T08:09:52;100474.41;;;15.89;58.06
63700;BME280;49845;47.130;142.766;2023-05-19T08:12:23;100478.09;;;15.85;57.81
63700;BME280;49845;47.130;142.766;2023-05-19T08:14:54;100472.81;;;15.85;58.02
63700;BME280;49845;47.130;142.766;2023-05-19T08:17:30;100470.09;;;15.87;57.82
63700;BME280;49845;47.130;142.766;2023-05-19T08:20:01;100471.72;;;15.91;58.10
63700;BME280;49845;47.130;142.766;2023-05-19T08:22:36;100478.72;;;15.92;58.21
63700;BME280;49845;47.130;142.766;2023-05-19T08:25:09;100476.88;;;15.94;59.32
63700;BME280;49845;47.130;142.766;2023-05-19T08:27:41;100480.19;;;16.01;59.45
63700;BME280;49845;47.130;142.766;2023-05-19T08:30:17;100475.44;;;15.85;59.69
63700;BME280;49845;47.130;142.766;2023-05-19T08:32:48;100421.28;;;15.50;59.01
63700;BME280;49845;47.130;142.766;2023-05-19T08:35:18;100486.03;;;15.84;58.86
63700;BME280;49845;47.130;142.766;2023-05-19T08:37:51;100487.09;;;15.78;59.43
63700;BME280;49845;47.130;142.766;2023-05-19T08:40:25;100495.72;;;15.83;59.91
63700;BME280;49845;47.130;142.766;2023-05-19T08:43:02;100496.72;;;15.79;59.78
63700;BME280;49845;47.130;142.766;2023-05-19T08:45:35;100498.50;;;15.79;59.70
63700;BME280;49845;47.130;142.766;2023-05-19T08:48:07;100505.00;;;15.67;59.63
63700;BME280;49845;47.130;142.766;2023-05-19T08:50:40;100512.09;;;15.65;59.84
63700;BME280;49845;47.130;142.766;2023-05-19T08:53:21;100513.13;;;15.61;59.44
63700;BME280;49845;47.130;142.766;2023-05-19T08:56:05;100523.22;;;15.48;59.68
63700;BME280;49845;47.130;142.766;2023-05-19T08:58:39;100514.91;;;15.32;59.84
63700;BME280;49845;47.130;142.766;2023-05-19T09:01:13;100526.72;;;15.20;60.29
63700;BME280;49845;47.130;142.766;2023-05-19T09:03:46;100477.97;;;14.79;60.45
63700;BME280;49845;47.130;142.766;2023-05-19T09:06:17;100537.13;;;14.95;60.30
63700;BME280;49845;47.130;142.766;2023-05-19T09:08:50;100546.19;;;14.85;60.83
63700;BME280;49845;47.130;142.766;2023-05-19T09:11:20;100549.34;;;14.66;61.23
63700;BME280;49845;47.130;142.766;2023-05-19T09:13:51;100554.09;;;14.52;61.99
63700;BME280;49845;47.130;142.766;2023-05-19T09:16:22;100560.75;;;14.00;63.63
63700;BME280;49845;47.130;142.766;2023-05-19T09:18:56;100562.91;;;13.08;65.98
63700;BME280;49845;47.130;142.766;2023-05-19T09:21:38;100578.13;;;12.48;67.99
63700;BME280;49845;47.130;142.766;2023-05-19T09:24:12;100578.75;;;12.15;70.17
63700;BME280;49845;47.130;142.766;2023-05-19T09:26:45;100581.69;;;11.96;70.52
63700;BME280;49845;47.130;142.766;2023-05-19T09:29:17;100551.81;;;11.52;71.22
63700;BME280;49845;47.130;142.766;2023-05-19T09:31:48;100598.25;;;11.39;72.46
63700;BME280;49845;47.130;142.766;2023-05-19T09:34:29;100580.34;;;11.10;73.33
63700;BME280;49845;47.130;142.766;2023-05-19T09:37:02;100603.06;;;11.05;74.25
63700;BME280;49845;47.130;142.766;2023-05-19T09:39:38;100617.09;;;10.98;75.16
63700;BME280;49845;47.130;142.766;2023-05-19T09:42:08;100623.28;;;10.92;75.42
63700;BME280;49845;47.130;142.766;2023-05-19T09:44:41;100608.59;;;10.80;75.80
63700;BME280;49845;47.130;142.766;2023-05-19T09:47:15;100621.75;;;10.76;76.28
63700;BME280;49845;47.130;142.766;2023-05-19T09:49:48;100621.94;;;10.59;76.76
63700;BME280;49845;47.130;142.766;2023-05-19T09:52:20;100608.22;;;10.39;77.66
63700;BME280;49845;47.130;142.766;2023-05-19T09:54:52;100630.91;;;10.33;77.78
63700;BME280;49845;47.130;142.766;2023-05-19T09:57:31;100635.34;;;10.19;78.74
63700;BME280;49845;47.130;142.766;2023-05-19T10:00:05;100626.81;;;9.99;79.69
63700;BME280;49845;47.130;142.766;2023-05-19T10:02:46;100641.72;;;9.84;80.61
63700;BME280;49845;47.130;142.766;2023-05-19T10:05:18;100642.66;;;9.74;81.34
63700;BME280;49845;47.130;142.766;2023-05-19T10:07:50;100649.69;;;9.60;82.21
63700;BME280;49845;47.130;142.766;2023-05-19T10:10:23;100648.94;;;9.41;83.26
63700;BME280;49845;47.130;142.766;2023-05-19T10:12:57;100646.38;;;9.30;84.15
63700;BME280;49845;47.130;142.766;2023-05-19T10:15:28;100649.94;;;9.17;85.04
63700;BME280;49845;47.130;142.766;2023-05-19T10:18:11;100653.50;;;8.94;86.11
63700;BME280;49845;47.130;142.766;2023-05-19T10:20:44;100662.22;;;8.84;86.82
63700;BME280;49845;47.130;142.766;2023-05-19T10:23:19;100668.34;;;8.68;87.49
63700;BME280;49845;47.130;142.766;2023-05-19T10:25:54;100676.16;;;8.55;88.18
63700;BME280;49845;47.130;142.766;2023-05-19T10:28:33;100677.91;;;8.56;88.76
63700;BME280;49845;47.130;142.766;2023-05-19T10:31:06;100665.75;;;8.43;89.02
63700;BME280;49845;47.130;142.766;2023-05-19T10:33:52;100684.81;;;8.36;89.29
63700;BME280;49845;47.130;142.766;2023-05-19T10:36:41;100697.00;;;8.28;90.13
63700;BME280;49845;47.130;142.766;2023-05-19T10:39:17;100693.53;;;8.19;90.58
63700;BME280;49845;47.130;142.766;2023-05-19T10:42:02;100700.47;;;8.17;91.13
63700;BME280;49845;47.130;142.766;2023-05-19T10:44:55;100701.34;;;8.04;91.03
63700;BME280;49845;47.130;142.766;2023-05-19T10:47:30;100690.00;;;7.81;92.04
63700;BME280;49845;47.130;142.766;2023-05-19T10:50:04;100709.97;;;7.86;92.92
63700;BME280;49845;47.130;142.766;2023-05-19T10:52:37;100673.50;;;7.57;93.05
63700;BME280;49845;47.130;142.766;2023-05-19T10:55:08;100709.97;;;7.77;93.18
63700;BME280;49845;47.130;142.766;2023-05-19T10:57:54;100709.06;;;7.73;93.39
63700;BME280;49845;47.130;142.766;2023-05-19T11:00:29;100710.78;;;7.59;93.80
63700;BME280;49845;47.130;142.766;2023-05-19T11:03:12;100717.72;;;7.63;93.93
63700;BME280;49845;47.130;142.766;2023-05-19T11:05:48;100700.31;;;7.41;93.74
63700;BME280;49845;47.130;142.766;2023-05-19T11:08:31;100720.25;;;7.40;94.30
63700;BME280;49845;47.130;142.766;2023-05-19T11:11:12;100715.84;;;7.28;95.36
63700;BME280;49845;47.130;142.766;2023-05-19T11:13:46;100712.31;;;7.11;96.22
63700;BME280;49845;47.130;142.766;2023-05-19T11:16:30;100710.53;;;7.01;97.25
63700;BME280;49845;47.130;142.766;2023-05-19T11:19:05;100697.38;;;6.72;98.00
63700;BME280;49845;47.130;142.766;2023-05-19T11:21:46;100659.13;;;6.44;98.19
63700;BME280;49845;47.130;142.766;2023-05-19T11:24:35;100725.06;;;6.69;99.15
63700;BME280;49845;47.130;142.766;2023-05-19T11:27:20;100738.81;;;6.58;100.00
63700;BME280;49845;47.130;142.766;2023-05-19T11:30:07;100704.88;;;6.30;100.00
63700;BME280;49845;47.130;142.766;2023-05-19T11:32:47;100748.22;;;6.42;100.00
63700;BME280;49845;47.130;142.766;2023-05-19T11:35:20;100744.69;;;6.35;100.00
63700;BME280;49845;47.130;142.766;2023-05-19T11:37:55;100736.00;;;6.30;100.00
63700;BME280;49845;47.130;142.766;2023-05-19T11:40:27;100760.28;;;6.35;100.00
63700;BME280;49845;47.130;142.766;2023-05-19T11:43:01;100755.00;;;6.26;100.00
63700;BME280;49845;47.130;142.766;2023-05-19T11:45:33;100764.53;;;6.27;100.00
63700;BME280;49845;47.130;142.766;2023-05-19T11:48:05;100747.91;;;6.07;100.00
63700;BME280;49845;47.130;142.766;2023-05-19T11:50:40;100763.56;;;6.17;100.00
63700;BME280;49845;47.130;142.766;2023-05-19T11:53:13;100738.22;;;5.93;100.00
63700;BME280;49845;47.130;142.766;2023-05-19T11:55:48;100760.91;;;6.11;100.00
63700;BME280;49845;47.130;142.766;2023-05-19T11:58:24;100777.41;;;6.18;100.00
63700;BME280;49845;47.130;142.766;2023-05-19T12:01:03;100707.81;;;5.77;100.00
63700;BME280;49845;47.130;142.766;2023-05-19T12:03:34;100770.44;;;6.14;100.00
63700;BME280;49845;47.130;142.766;2023-05-19T12:06:08;100770.50;;;6.17;100.00
63700;BME280;49845;47.130;142.766;2023-05-19T12:08:38;100763.56;;;6.19;100.00
63700;BME280;49845;47.130;142.766;2023-05-19T12:11:14;100751.47;;;6.21;100.00
63700;BME280;49845;47.130;142.766;2023-05-19T12:13:47;100759.22;;;6.16;100.00
63700;BME280;49845;47.130;142.766;2023-05-19T12:16:30;100759.28;;;6.19;100.00
63700;BME280;49845;47.130;142.766;2023-05-19T12:19:07;100760.94;;;6.13;100.00
63700;BME280;49845;47.130;142.766;2023-05-19T12:21:39;100773.88;;;6.10;100.00
63700;BME280;49845;47.130;142.766;2023-05-19T12:24:10;100769.56;;;6.10;100.00
63700;BME280;49845;47.130;142.766;2023-05-19T12:26:41;100770.41;;;6.08;100.00
63700;BME280;49845;47.130;142.766;2023-05-19T12:29:12;100770.22;;;5.92;100.00
63700;BME280;49845;47.130;142.766;2023-05-19T12:31:48;100789.38;;;6.03;100.00
63700;BME280;49845;47.130;142.766;2023-05-19T12:34:22;100779.03;;;6.07;100.00
63700;BME280;49845;47.130;142.766;2023-05-19T12:36:53;100754.63;;;5.89;100.00
63700;BME280;49845;47.130;142.766;2023-05-19T12:39:24;100792.81;;;5.99;100.00
63700;BME280;49845;47.130;142.766;2023-05-19T12:42:12;100792.63;;;5.87;100.00
63700;BME280;49845;47.130;142.766;2023-05-19T12:44:47;100783.94;;;5.82;100.00
63700;BME280;49845;47.130;142.766;2023-05-19T12:47:37;100802.84;;;5.72;100.00
63700;BME280;49845;47.130;142.766;2023-05-19T12:50:09;100796.66;;;5.63;100.00
63700;BME280;49845;47.130;142.766;2023-05-19T12:52:42;100785.38;;;5.61;100.00
63700;BME280;49845;47.130;142.766;2023-05-19T12:55:15;100800.19;;;5.69;100.00
63700;BME280;49845;47.130;142.766;2023-05-19T13:00:20;100708.63;;;5.01;100.00
63700;BME280;49845;47.130;142.766;2023-05-19T13:03:01;100811.38;;;5.65;100.00
63700;BME280;49845;47.130;142.766;2023-05-19T13:05:41;100807.94;;;5.66;100.00
63700;BME280;49845;47.130;142.766;2023-05-19T13:08:16;100800.91;;;5.58;100.00
63700;BME280;49845;47.130;142.766;2023-05-19T13:10:47;100805.38;;;5.67;100.00